sensor_id;sensor_type;location;lat;lon;timestamp;temperature;humidity
38237;DHT22;50101;49.438;11.098;2023-12-20T00:01:03;19.20;53.30
38237;DHT22;50101;49.438;11.098;2023-12-20T00:03:30;19.20;53.30
38237;DHT22;50101;49.438;11.098;2023-12-20T00:06:08;19.20;53.30
38237;DHT22;50101;49.438;11.098;2023-12-20T00:08:35;19.20;53.30
38237;DHT22;50101;49.438;11.098;2023-12-20T00:11:02;19.20;53.30
38237;DHT22;50101;49.438;11.098;2023-12-20T00:13:28;19.20;53.30
38237;DHT22;50101;49.438;11.098;2023-12-20T00:15:55;19.20;53.30
38237;DHT22;50101;49.438;11.098;2023-12-20T00:18:22;19.20;53.30
38237;DHT22;50101;49.438;11.098;2023-12-20T00:20:49;19.20;53.30
38237;DHT22;50101;49.438;11.098;2023-12-20T00:23:16;19.20;53.30
38237;DHT22;50101;49.438;11.098;2023-12-20T00:25:42;19.20;53.30
38237;DHT22;50101;49.438;11.098;2023-12-20T00:28:09;19.20;53.30
38237;DHT22;50101;49.438;11.098;2023-12-20T00:30:36;19.20;52.90
38237;DHT22;50101;49.438;11.098;2023-12-20T00:33:03;19.20;53.30
38237;DHT22;50101;49.438;11.098;2023-12-20T00:35:30;19.20;53.30
38237;DHT22;50101;49.438;11.098;2023-12-20T00:37:58;19.10;53.20
38237;DHT22;50101;49.438;11.098;2023-12-20T00:40:25;20.00;54.00
38237;DHT22;50101;49.438;11.098;2023-12-20T00:42:52;19.20;53.40
38237;DHT22;50101;49.438;11.098;2023-12-20T00:45:19;19.20;53.30
38237;DHT22;50101;49.438;11.098;2023-12-20T00:47:45;19.10;53.30
38237;DHT22;50101;49.438;11.098;2023-12-20T00:50:13;19.10;52.80
38237;DHT22;50101;49.438;11.098;2023-12-20T00:52:40;19.10;53.30
38237;DHT22;50101;49.438;11.098;2023-12-20T00:55:06;19.10;53.30
38237;DHT22;50101;49.438;11.098;2023-12-20T00:57:34;19.10;53.20
38237;DHT22;50101;49.438;11.098;2023-12-20T01:00:01;19.10;53.20
38237;DHT22;50101;49.438;11.098;2023-12-20T01:02:29;19.10;53.20
38237;DHT22;50101;49.438;11.098;2023-12-20T01:04:55;19.10;53.20
38237;DHT22;50101;49.438;11.098;2023-12-20T01:07:22;19.10;53.20
38237;DHT22;50101;49.438;11.098;2023-12-20T01:09:49;19.10;53.20
38237;DHT22;50101;49.438;11.098;2023-12-20T01:12:16;19.10;52.80
38237;DHT22;50101;49.438;11.098;2023-12-20T01:14:43;19.10;53.30
38237;DHT22;50101;49.438;11.098;2023-12-20T01:17:09;19.10;53.20
38237;DHT22;50101;49.438;11.098;2023-12-20T01:19:36;19.10;53.30
38237;DHT22;50101;49.438;11.098;2023-12-20T01:22:03;19.10;53.30
38237;DHT22;50101;49.438;11.098;2023-12-20T01:24:30;19.10;53.30
38237;DHT22;50101;49.438;11.098;2023-12-20T01:26:57;19.10;53.30
38237;DHT22;50101;49.438;11.098;2023-12-20T01:29:24;19.00;53.20
38237;DHT22;50101;49.438;11.098;2023-12-20T01:31:51;19.10;53.20
38237;DHT22;50101;49.438;11.098;2023-12-20T01:34:18;19.00;53.20
38237;DHT22;50101;49.438;11.098;2023-12-20T01:36:45;19.00;53.20
38237;DHT22;50101;49.438;11.098;2023-12-20T01:39:11;19.00;53.20
38237;DHT22;50101;49.438;11.098;2023-12-20T01:41:53;19.00;53.20
38237;DHT22;50101;49.438;11.098;2023-12-20T01:44:20;19.00;53.20
38237;DHT22;50101;49.438;11.098;2023-12-20T01:46:47;19.00;53.20
38237;DHT22;50101;49.438;11.098;2023-12-20T01:49:14;19.00;53.20
38237;DHT22;50101;49.438;11.098;2023-12-20T01:51:43;19.00;52.70
38237;DHT22;50101;49.438;11.098;2023-12-20T01:54:10;19.00;53.20
38237;DHT22;50101;49.438;11.098;2023-12-20T01:56:37;19.00;53.20
38237;DHT22;50101;49.438;11.098;2023-12-20T01:59:05;19.00;53.20
38237;DHT22;50101;49.438;11.098;2023-12-20T02:01:33;19.00;53.20
38237;DHT22;50101;49.438;11.098;2023-12-20T02:04:00;19.00;53.10
38237;DHT22;50101;49.438;11.098;2023-12-20T02:06:33;19.00;53.20
38237;DHT22;50101;49.438;11.098;2023-12-20T02:09:00;19.00;53.20
38237;DHT22;50101;49.438;11.098;2023-12-20T02:11:27;19.00;53.20
38237;DHT22;50101;49.438;11.098;2023-12-20T02:13:55;19.00;53.20
38237;DHT22;50101;49.438;11.098;2023-12-20T02:16:22;19.00;53.20
38237;DHT22;50101;49.438;11.098;2023-12-20T02:18:49;19.00;53.20
38237;DHT22;50101;49.438;11.098;2023-12-20T02:21:16;19.00;53.20
38237;DHT22;50101;49.438;11.098;2023-12-20T02:23:43;19.00;53.20
38237;DHT22;50101;49.438;11.098;2023-12-20T02:26:10;19.00;53.20
38237;DHT22;50101;49.438;11.098;2023-12-20T02:28:37;19.00;53.20
38237;DHT22;50101;49.438;11.098;2023-12-20T02:31:05;18.90;52.70
38237;DHT22;50101;49.438;11.098;2023-12-20T02:33:32;18.90;53.10
38237;DHT22;50101;49.438;11.098;2023-12-20T02:35:58;19.00;53.30
38237;DHT22;50101;49.438;11.098;2023-12-20T02:38:25;19.00;53.20
38237;DHT22;50101;49.438;11.098;2023-12-20T02:40:52;18.90;53.20
38237;DHT22;50101;49.438;11.098;2023-12-20T02:43:19;19.00;53.20
38237;DHT22;50101;49.438;11.098;2023-12-20T02:45:45;18.90;53.10
38237;DHT22;50101;49.438;11.098;2023-12-20T02:48:12;18.90;53.20
38237;DHT22;50101;49.438;11.098;2023-12-20T02:50:39;18.90;53.10
38237;DHT22;50101;49.438;11.098;2023-12-20T02:53:06;18.90;52.70
38237;DHT22;50101;49.438;11.098;2023-12-20T02:55:32;18.90;53.20
38237;DHT22;50101;49.438;11.098;2023-12-20T02:57:59;18.90;53.20
38237;DHT22;50101;49.438;11.098;2023-12-20T03:00:26;18.90;53.20
38237;DHT22;50101;49.438;11.098;2023-12-20T03:02:53;18.90;53.20
38237;DHT22;50101;49.438;11.098;2023-12-20T03:05:19;18.90;53.20
38237;DHT22;50101;49.438;11.098;2023-12-20T03:07:47;18.80;53.10
38237;DHT22;50101;49.438;11.098;2023-12-20T03:10:14;18.80;53.20
38237;DHT22;50101;49.438;11.098;2023-12-20T03:12:51;18.90;53.20
38237;DHT22;50101;49.438;11.098;2023-12-20T03:15:18;18.90;53.20
38237;DHT22;50101;49.438;11.098;2023-12-20T03:17:45;18.80;53.20
38237;DHT22;50101;49.438;11.098;2023-12-20T03:20:12;18.80;53.20
38237;DHT22;50101;49.438;11.098;2023-12-20T03:22:39;18.80;53.20
38237;DHT22;50101;49.438;11.098;2023-12-20T03:25:06;18.80;53.80
38237;DHT22;50101;49.438;11.098;2023-12-20T03:27:33;18.80;53.20
38237;DHT22;50101;49.438;11.098;2023-12-20T03:29:59;18.80;53.20
38237;DHT22;50101;49.438;11.098;2023-12-20T03:32:26;18.80;53.20
38237;DHT22;50101;49.438;11.098;2023-12-20T03:34:53;18.80;53.20
38237;DHT22;50101;49.438;11.098;2023-12-20T03:37:21;18.80;53.20
38237;DHT22;50101;49.438;11.098;2023-12-20T03:39:48;18.80;53.20
38237;DHT22;50101;49.438;11.098;2023-12-20T03:42:15;18.80;52.70
38237;DHT22;50101;49.438;11.098;2023-12-20T03:44:42;18.80;53.20
38237;DHT22;50101;49.438;11.098;2023-12-20T03:47:08;18.80;53.30
38237;DHT22;50101;49.438;11.098;2023-12-20T03:49:35;18.80;53.30
38237;DHT22;50101;49.438;11.098;2023-12-20T03:52:04;18.80;53.30
38237;DHT22;50101;49.438;11.098;2023-12-20T03:54:31;18.80;53.30
38237;DHT22;50101;49.438;11.098;2023-12-20T03:56:58;18.80;53.30
38237;DHT22;50101;49.438;11.098;2023-12-20T03:59:24;18.80;53.30
38237;DHT22;50101;49.438;11.098;2023-12-20T04:01:51;18.80;52.80
38237;DHT22;50101;49.438;11.098;2023-12-20T04:04:19;18.80;53.40
38237;DHT22;50101;49.438;11.098;2023-12-20T04:06:45;18.80;53.30
38237;DHT22;50101;49.438;11.098;2023-12-20T04:09:12;18.80;53.30
38237;DHT22;50101;49.438;11.098;2023-12-20T04:11:39;18.80;53.40
38237;DHT22;50101;49.438;11.098;2023-12-20T04:14:06;18.80;53.40
38237;DHT22;50101;49.438;11.098;2023-12-20T04:16:34;18.70;53.30
38237;DHT22;50101;49.438;11.098;2023-12-20T04:19:00;18.80;53.40
38237;DHT22;50101;49.438;11.098;2023-12-20T04:21:27;18.70;53.30
38237;DHT22;50101;49.438;11.098;2023-12-20T04:23:54;18.70;53.30
38237;DHT22;50101;49.438;11.098;2023-12-20T04:26:21;18.70;53.30
38237;DHT22;50101;49.438;11.098;2023-12-20T04:28:48;18.70;53.30
38237;DHT22;50101;49.438;11.098;2023-12-20T04:31:15;18.70;52.80
38237;DHT22;50101;49.438;11.098;2023-12-20T04:33:42;18.70;53.30
38237;DHT22;50101;49.438;11.098;2023-12-20T04:36:08;18.70;53.30
38237;DHT22;50101;49.438;11.098;2023-12-20T04:38:35;18.70;53.30
38237;DHT22;50101;49.438;11.098;2023-12-20T04:43:30;18.70;52.80
38237;DHT22;50101;49.438;11.098;2023-12-20T04:45:56;18.70;53.40
38237;DHT22;50101;49.438;11.098;2023-12-20T04:48:23;18.70;53.30
38237;DHT22;50101;49.438;11.098;2023-12-20T04:50:50;18.70;53.40
38237;DHT22;50101;49.438;11.098;2023-12-20T04:53:17;18.70;52.90
38237;DHT22;50101;49.438;11.098;2023-12-20T04:55:43;18.70;53.40
38237;DHT22;50101;49.438;11.098;2023-12-20T04:58:10;18.70;53.40
38237;DHT22;50101;49.438;11.098;2023-12-20T05:00:37;18.70;53.40
38237;DHT22;50101;49.438;11.098;2023-12-20T05:03:04;18.70;53.40
38237;DHT22;50101;49.438;11.098;2023-12-20T05:05:30;18.70;53.40
38237;DHT22;50101;49.438;11.098;2023-12-20T05:07:58;18.70;53.40
38237;DHT22;50101;49.438;11.098;2023-12-20T05:10:25;18.70;53.40
38237;DHT22;50101;49.438;11.098;2023-12-20T05:12:53;18.70;53.40
38237;DHT22;50101;49.438;11.098;2023-12-20T05:15:20;18.70;53.40
38237;DHT22;50101;49.438;11.098;2023-12-20T05:17:46;18.70;53.40
38237;DHT22;50101;49.438;11.098;2023-12-20T05:20:14;18.60;53.40
38237;DHT22;50101;49.438;11.098;2023-12-20T05:22:41;18.70;53.40
38237;DHT22;50101;49.438;11.098;2023-12-20T05:25:08;18.70;53.40
38237;DHT22;50101;49.438;11.098;2023-12-20T05:27:34;18.80;53.40
38237;DHT22;50101;49.438;11.098;2023-12-20T05:30:01;18.80;53.40
38237;DHT22;50101;49.438;11.098;2023-12-20T05:32:28;18.80;53.50
38237;DHT22;50101;49.438;11.098;2023-12-20T05:34:55;18.80;53.40
38237;DHT22;50101;49.438;11.098;2023-12-20T05:37:22;18.80;53.40
38237;DHT22;50101;49.438;11.098;2023-12-20T05:39:49;18.70;53.40
38237;DHT22;50101;49.438;11.098;2023-12-20T05:42:16;18.80;53.50
38237;DHT22;50101;49.438;11.098;2023-12-20T05:44:42;18.70;53.40
38237;DHT22;50101;49.438;11.098;2023-12-20T05:47:09;18.70;53.40
38237;DHT22;50101;49.438;11.098;2023-12-20T05:49:36;18.70;53.40
38237;DHT22;50101;49.438;11.098;2023-12-20T05:52:03;18.80;53.50
38237;DHT22;50101;49.438;11.098;2023-12-20T05:54:30;18.80;53.50
38237;DHT22;50101;49.438;11.098;2023-12-20T05:56:56;18.70;53.40
38237;DHT22;50101;49.438;11.098;2023-12-20T05:59:23;18.80;53.50
38237;DHT22;50101;49.438;11.098;2023-12-20T06:01:50;18.80;52.90
38237;DHT22;50101;49.438;11.098;2023-12-20T06:04:17;18.80;53.40
38237;DHT22;50101;49.438;11.098;2023-12-20T06:06:46;18.80;53.50
38237;DHT22;50101;49.438;11.098;2023-12-20T06:09:12;18.80;53.50
38237;DHT22;50101;49.438;11.098;2023-12-20T06:11:39;18.80;53.50
38237;DHT22;50101;49.438;11.098;2023-12-20T06:14:06;18.80;53.60
38237;DHT22;50101;49.438;11.098;2023-12-20T06:16:33;18.70;53.40
38237;DHT22;50101;49.438;11.098;2023-12-20T06:18:59;18.80;53.60
38237;DHT22;50101;49.438;11.098;2023-12-20T06:21:26;18.80;53.70
38237;DHT22;50101;49.438;11.098;2023-12-20T06:23:53;18.80;53.70
38237;DHT22;50101;49.438;11.098;2023-12-20T06:26:20;18.80;53.70
38237;DHT22;50101;49.438;11.098;2023-12-20T06:28:46;18.80;53.70
38237;DHT22;50101;49.438;11.098;2023-12-20T06:31:13;18.80;53.70
38237;DHT22;50101;49.438;11.098;2023-12-20T06:33:40;18.80;53.80
38237;DHT22;50101;49.438;11.098;2023-12-20T06:36:10;18.80;53.80
38237;DHT22;50101;49.438;11.098;2023-12-20T06:38:37;18.80;53.90
38237;DHT22;50101;49.438;11.098;2023-12-20T06:41:03;18.80;53.80
38237;DHT22;50101;49.438;11.098;2023-12-20T06:43:30;18.80;54.00
38237;DHT22;50101;49.438;11.098;2023-12-20T06:46:14;18.90;53.90
38237;DHT22;50101;49.438;11.098;2023-12-20T06:48:41;19.00;54.10
38237;DHT22;50101;49.438;11.098;2023-12-20T06:51:14;19.00;53.70
38237;DHT22;50101;49.438;11.098;2023-12-20T06:53:42;19.00;54.40
38237;DHT22;50101;49.438;11.098;2023-12-20T06:56:10;19.00;54.60
38237;DHT22;50101;49.438;11.098;2023-12-20T06:58:42;19.00;54.50
38237;DHT22;50101;49.438;11.098;2023-12-20T07:01:12;19.00;54.80
38237;DHT22;50101;49.438;11.098;2023-12-20T07:03:40;19.00;54.60
38237;DHT22;50101;49.438;11.098;2023-12-20T07:06:07;19.00;54.90
38237;DHT22;50101;49.438;11.098;2023-12-20T07:08:34;19.00;55.00
38237;DHT22;50101;49.438;11.098;2023-12-20T07:11:01;19.00;55.00
38237;DHT22;50101;49.438;11.098;2023-12-20T07:13:27;19.10;55.00
38237;DHT22;50101;49.438;11.098;2023-12-20T07:15:54;19.10;55.20
38237;DHT22;50101;49.438;11.098;2023-12-20T07:18:21;19.10;55.20
38237;DHT22;50101;49.438;11.098;2023-12-20T07:20:48;19.10;54.80
38237;DHT22;50101;49.438;11.098;2023-12-20T07:23:14;19.10;55.50
38237;DHT22;50101;49.438;11.098;2023-12-20T07:25:41;19.10;55.40
38237;DHT22;50101;49.438;11.098;2023-12-20T07:28:08;19.10;55.50
38237;DHT22;50101;49.438;11.098;2023-12-20T07:30:34;19.10;55.50
38237;DHT22;50101;49.438;11.098;2023-12-20T07:33:01;19.10;55.50
38237;DHT22;50101;49.438;11.098;2023-12-20T07:35:29;19.20;55.60
38237;DHT22;50101;49.438;11.098;2023-12-20T07:37:56;19.10;55.40
38237;DHT22;50101;49.438;11.098;2023-12-20T07:40:23;19.20;55.20
38237;DHT22;50101;49.438;11.098;2023-12-20T07:42:50;19.20;55.00
38237;DHT22;50101;49.438;11.098;2023-12-20T07:45:17;19.20;55.60
38237;DHT22;50101;49.438;11.098;2023-12-20T07:47:44;19.20;55.60
38237;DHT22;50101;49.438;11.098;2023-12-20T07:50:11;19.20;55.30
38237;DHT22;50101;49.438;11.098;2023-12-20T07:52:38;19.30;55.20
38237;DHT22;50101;49.438;11.098;2023-12-20T07:55:05;19.30;55.20
38237;DHT22;50101;49.438;11.098;2023-12-20T07:57:32;19.30;55.10
38237;DHT22;50101;49.438;11.098;2023-12-20T07:59:59;19.30;54.90
38237;DHT22;50101;49.438;11.098;2023-12-20T08:02:26;19.30;55.00
38237;DHT22;50101;49.438;11.098;2023-12-20T08:04:52;19.40;55.10
38237;DHT22;50101;49.438;11.098;2023-12-20T08:07:19;19.30;55.00
38237;DHT22;50101;49.438;11.098;2023-12-20T08:09:46;19.30;55.00
38237;DHT22;50101;49.438;11.098;2023-12-20T08:12:12;19.30;55.00
38237;DHT22;50101;49.438;11.098;2023-12-20T08:14:39;19.30;55.10
38237;DHT22;50101;49.438;11.098;2023-12-20T08:17:06;19.30;55.00
38237;DHT22;50101;49.438;11.098;2023-12-20T08:19:33;19.30;55.00
38237;DHT22;50101;49.438;11.098;2023-12-20T08:22:00;19.40;55.10
38237;DHT22;50101;49.438;11.098;2023-12-20T08:24:26;19.40;55.20
38237;DHT22;50101;49.438;11.098;2023-12-20T08:26:53;19.40;54.90
38237;DHT22;50101;49.438;11.098;2023-12-20T08:29:20;19.30;54.80
38237;DHT22;50101;49.438;11.098;2023-12-20T08:31:52;19.30;55.00
38237;DHT22;50101;49.438;11.098;2023-12-20T08:34:19;19.40;55.20
38237;DHT22;50101;49.438;11.098;2023-12-20T08:36:46;19.40;55.00
38237;DHT22;50101;49.438;11.098;2023-12-20T08:39:12;19.40;55.20
38237;DHT22;50101;49.438;11.098;2023-12-20T08:41:39;19.40;54.70
38237;DHT22;50101;49.438;11.098;2023-12-20T08:44:06;19.40;55.10
38237;DHT22;50101;49.438;11.098;2023-12-20T08:46:33;19.50;55.00
38237;DHT22;50101;49.438;11.098;2023-12-20T08:48:59;19.50;55.00
38237;DHT22;50101;49.438;11.098;2023-12-20T08:51:27;19.40;55.20
38237;DHT22;50101;49.438;11.098;2023-12-20T08:53:54;19.40;54.90
38237;DHT22;50101;49.438;11.098;2023-12-20T08:56:21;19.40;55.50
38237;DHT22;50101;49.438;11.098;2023-12-20T08:58:48;19.40;55.60
38237;DHT22;50101;49.438;11.098;2023-12-20T09:01:14;19.40;55.40
38237;DHT22;50101;49.438;11.098;2023-12-20T09:03:42;19.50;55.40
38237;DHT22;50101;49.438;11.098;2023-12-20T09:06:08;19.50;55.30
38237;DHT22;50101;49.438;11.098;2023-12-20T09:08:35;19.50;55.00
38237;DHT22;50101;49.438;11.098;2023-12-20T09:11:02;19.50;55.10
38237;DHT22;50101;49.438;11.098;2023-12-20T09:13:29;19.40;54.90
38237;DHT22;50101;49.438;11.098;2023-12-20T09:15:58;19.40;54.90
38237;DHT22;50101;49.438;11.098;2023-12-20T09:18:25;19.30;54.80
38237;DHT22;50101;49.438;11.098;2023-12-20T09:20:52;19.30;54.30
38237;DHT22;50101;49.438;11.098;2023-12-20T09:23:19;19.30;54.80
38237;DHT22;50101;49.438;11.098;2023-12-20T09:25:46;19.30;54.70
38237;DHT22;50101;49.438;11.098;2023-12-20T09:28:12;19.30;54.60
38237;DHT22;50101;49.438;11.098;2023-12-20T09:30:39;19.30;54.70
38237;DHT22;50101;49.438;11.098;2023-12-20T09:33:07;19.30;54.60
38237;DHT22;50101;49.438;11.098;2023-12-20T09:35:34;19.30;54.60
38237;DHT22;50101;49.438;11.098;2023-12-20T09:38:01;19.30;54.60
38237;DHT22;50101;49.438;11.098;2023-12-20T09:40:29;19.30;54.50
38237;DHT22;50101;49.438;11.098;2023-12-20T09:43:20;19.30;54.50
38237;DHT22;50101;49.438;11.098;2023-12-20T09:45:47;19.30;54.50
38237;DHT22;50101;49.438;11.098;2023-12-20T09:48:17;19.30;54.60
38237;DHT22;50101;49.438;11.098;2023-12-20T09:50:47;19.30;54.60
38237;DHT22;50101;49.438;11.098;2023-12-20T09:53:19;19.30;54.20
38237;DHT22;50101;49.438;11.098;2023-12-20T09:55:46;19.30;54.80
38237;DHT22;50101;49.438;11.098;2023-12-20T09:58:13;19.20;54.70
38237;DHT22;50101;49.438;11.098;2023-12-20T10:00:40;19.30;54.80
38237;DHT22;50101;49.438;11.098;2023-12-20T10:03:07;19.20;54.70
38237;DHT22;50101;49.438;11.098;2023-12-20T10:05:35;19.30;54.90
38237;DHT22;50101;49.438;11.098;2023-12-20T10:08:02;19.20;54.90
38237;DHT22;50101;49.438;11.098;2023-12-20T10:10:30;19.20;54.90
38237;DHT22;50101;49.438;11.098;2023-12-20T10:13:11;19.20;54.90
38237;DHT22;50101;49.438;11.098;2023-12-20T10:15:39;19.20;55.00
38237;DHT22;50101;49.438;11.098;2023-12-20T10:18:07;19.20;55.00
38237;DHT22;50101;49.438;11.098;2023-12-20T10:20:34;19.20;55.10
38237;DHT22;50101;49.438;11.098;2023-12-20T10:23:01;19.20;55.10
38237;DHT22;50101;49.438;11.098;2023-12-20T10:25:28;19.20;55.10
38237;DHT22;50101;49.438;11.098;2023-12-20T10:28:14;19.20;55.10
38237;DHT22;50101;49.438;11.098;2023-12-20T10:30:43;19.20;55.20
38237;DHT22;50101;49.438;11.098;2023-12-20T10:33:10;19.20;55.10
38237;DHT22;50101;49.438;11.098;2023-12-20T10:35:39;19.20;55.10
38237;DHT22;50101;49.438;11.098;2023-12-20T10:38:11;19.10;55.10
38237;DHT22;50101;49.438;11.098;2023-12-20T10:40:40;19.10;55.10
38237;DHT22;50101;49.438;11.098;2023-12-20T10:43:08;19.20;55.20
38237;DHT22;50101;49.438;11.098;2023-12-20T10:45:36;19.20;55.20
38237;DHT22;50101;49.438;11.098;2023-12-20T10:48:03;19.10;55.10
38237;DHT22;50101;49.438;11.098;2023-12-20T10:50:31;19.10;55.10
38237;DHT22;50101;49.438;11.098;2023-12-20T10:52:58;19.10;55.10
38237;DHT22;50101;49.438;11.098;2023-12-20T10:55:27;19.10;55.10
38237;DHT22;50101;49.438;11.098;2023-12-20T10:58:00;19.10;55.10
38237;DHT22;50101;49.438;11.098;2023-12-20T11:00:29;19.10;55.20
38237;DHT22;50101;49.438;11.098;2023-12-20T11:03:00;19.10;55.20
38237;DHT22;50101;49.438;11.098;2023-12-20T11:08:20;19.10;55.20
38237;DHT22;50101;49.438;11.098;2023-12-20T11:11:03;19.10;55.20
38237;DHT22;50101;49.438;11.098;2023-12-20T11:13:34;19.10;55.30
38237;DHT22;50101;49.438;11.098;2023-12-20T11:16:03;19.10;55.80
38237;DHT22;50101;49.438;11.098;2023-12-20T11:18:30;19.10;55.20
38237;DHT22;50101;49.438;11.098;2023-12-20T11:21:02;19.10;55.10
38237;DHT22;50101;49.438;11.098;2023-12-20T11:23:31;19.10;55.20
38237;DHT22;50101;49.438;11.098;2023-12-20T11:26:02;19.00;55.10
38237;DHT22;50101;49.438;11.098;2023-12-20T11:28:29;19.00;55.10
38237;DHT22;50101;49.438;11.098;2023-12-20T11:31:01;19.00;55.10
38237;DHT22;50101;49.438;11.098;2023-12-20T11:33:36;19.00;55.10
38237;DHT22;50101;49.438;11.098;2023-12-20T11:36:03;19.00;55.10
38237;DHT22;50101;49.438;11.098;2023-12-20T11:38:39;19.00;55.00
38237;DHT22;50101;49.438;11.098;2023-12-20T11:41:15;19.00;55.00
38237;DHT22;50101;49.438;11.098;2023-12-20T11:43:42;19.00;55.00
38237;DHT22;50101;49.438;11.098;2023-12-20T11:46:09;19.00;55.00
38237;DHT22;50101;49.438;11.098;2023-12-20T11:48:38;19.00;55.00
38237;DHT22;50101;49.438;11.098;2023-12-20T11:51:12;19.10;54.40
38237;DHT22;50101;49.438;11.098;2023-12-20T11:53:42;19.10;54.90
38237;DHT22;50101;49.438;11.098;2023-12-20T11:56:10;19.00;54.80
38237;DHT22;50101;49.438;11.098;2023-12-20T11:58:37;19.10;54.90
38237;DHT22;50101;49.438;11.098;2023-12-20T12:01:05;19.10;54.80
38237;DHT22;50101;49.438;11.098;2023-12-20T12:03:34;19.20;55.20
38237;DHT22;50101;49.438;11.098;2023-12-20T12:06:01;19.20;56.10
38237;DHT22;50101;49.438;11.098;2023-12-20T12:08:30;19.20;56.10
38237;DHT22;50101;49.438;11.098;2023-12-20T12:10:57;19.20;56.30
38237;DHT22;50101;49.438;11.098;2023-12-20T12:13:24;19.20;56.90
38237;DHT22;50101;49.438;11.098;2023-12-20T12:15:54;19.20;56.90
38237;DHT22;50101;49.438;11.098;2023-12-20T12:18:21;19.30;56.70
38237;DHT22;50101;49.438;11.098;2023-12-20T12:20:48;19.30;56.70
38237;DHT22;50101;49.438;11.098;2023-12-20T12:23:23;19.30;56.90
38237;DHT22;50101;49.438;11.098;2023-12-20T12:25:50;19.30;56.60
38237;DHT22;50101;49.438;11.098;2023-12-20T12:28:17;19.30;56.70
38237;DHT22;50101;49.438;11.098;2023-12-20T12:30:56;19.30;57.00
38237;DHT22;50101;49.438;11.098;2023-12-20T12:33:25;19.30;56.90
38237;DHT22;50101;49.438;11.098;2023-12-20T12:35:52;19.30;56.60
38237;DHT22;50101;49.438;11.098;2023-12-20T12:38:23;19.40;56.60
38237;DHT22;50101;49.438;11.098;2023-12-20T12:40:50;19.40;56.30
38237;DHT22;50101;49.438;11.098;2023-12-20T12:43:19;19.40;56.30
38237;DHT22;50101;49.438;11.098;2023-12-20T12:45:46;19.40;56.40
38237;DHT22;50101;49.438;11.098;2023-12-20T12:48:13;19.40;56.40
38237;DHT22;50101;49.438;11.098;2023-12-20T12:50:40;19.40;56.50
38237;DHT22;50101;49.438;11.098;2023-12-20T12:53:07;19.40;56.40
38237;DHT22;50101;49.438;11.098;2023-12-20T12:55:35;19.40;56.50
38237;DHT22;50101;49.438;11.098;2023-12-20T12:58:02;19.40;56.50
38237;DHT22;50101;49.438;11.098;2023-12-20T13:00:29;19.30;56.40
38237;DHT22;50101;49.438;11.098;2023-12-20T13:02:56;19.40;56.10
38237;DHT22;50101;49.438;11.098;2023-12-20T13:05:22;19.40;56.30
38237;DHT22;50101;49.438;11.098;2023-12-20T13:07:49;19.40;56.40
38237;DHT22;50101;49.438;11.098;2023-12-20T13:10:16;19.40;56.40
38237;DHT22;50101;49.438;11.098;2023-12-20T13:12:43;19.40;55.80
38237;DHT22;50101;49.438;11.098;2023-12-20T13:15:10;19.40;56.30
38237;DHT22;50101;49.438;11.098;2023-12-20T13:17:37;19.40;56.20
38237;DHT22;50101;49.438;11.098;2023-12-20T13:20:05;19.40;56.30
38237;DHT22;50101;49.438;11.098;2023-12-20T13:22:32;19.40;56.10
38237;DHT22;50101;49.438;11.098;2023-12-20T13:24:59;19.40;55.80
38237;DHT22;50101;49.438;11.098;2023-12-20T13:27:26;19.40;56.50
38237;DHT22;50101;49.438;11.098;2023-12-20T13:29:53;19.40;56.60
38237;DHT22;50101;49.438;11.098;2023-12-20T13:32:20;19.40;56.60
38237;DHT22;50101;49.438;11.098;2023-12-20T13:34:47;19.40;56.50
38237;DHT22;50101;49.438;11.098;2023-12-20T13:37:14;19.40;56.50
38237;DHT22;50101;49.438;11.098;2023-12-20T13:39:41;19.40;56.30
38237;DHT22;50101;49.438;11.098;2023-12-20T13:42:07;19.40;56.30
38237;DHT22;50101;49.438;11.098;2023-12-20T13:44:34;19.40;56.30
38237;DHT22;50101;49.438;11.098;2023-12-20T13:47:01;19.40;55.90
38237;DHT22;50101;49.438;11.098;2023-12-20T13:49:28;19.40;55.80
38237;DHT22;50101;49.438;11.098;2023-12-20T13:51:55;19.40;55.80
38237;DHT22;50101;49.438;11.098;2023-12-20T13:54:24;19.40;55.80
38237;DHT22;50101;49.438;11.098;2023-12-20T13:56:51;19.30;56.10
38237;DHT22;50101;49.438;11.098;2023-12-20T13:59:34;19.30;55.40
38237;DHT22;50101;49.438;11.098;2023-12-20T14:02:01;19.30;55.30
38237;DHT22;50101;49.438;11.098;2023-12-20T14:04:30;19.40;54.90
38237;DHT22;50101;49.438;11.098;2023-12-20T14:07:09;19.30;54.80
38237;DHT22;50101;49.438;11.098;2023-12-20T14:09:37;19.30;55.20
38237;DHT22;50101;49.438;11.098;2023-12-20T14:12:04;19.30;55.30
38237;DHT22;50101;49.438;11.098;2023-12-20T14:14:31;19.30;55.40
38237;DHT22;50101;49.438;11.098;2023-12-20T14:16:58;19.90;55.80
38237;DHT22;50101;49.438;11.098;2023-12-20T14:19:25;19.30;55.30
38237;DHT22;50101;49.438;11.098;2023-12-20T14:21:52;19.30;54.80
38237;DHT22;50101;49.438;11.098;2023-12-20T14:24:19;19.30;55.10
38237;DHT22;50101;49.438;11.098;2023-12-20T14:26:45;19.30;55.30
38237;DHT22;50101;49.438;11.098;2023-12-20T14:29:12;19.40;55.10
38237;DHT22;50101;49.438;11.098;2023-12-20T14:31:39;19.40;54.90
38237;DHT22;50101;49.438;11.098;2023-12-20T14:34:07;19.40;55.30
38237;DHT22;50101;49.438;11.098;2023-12-20T14:36:35;19.40;55.30
38237;DHT22;50101;49.438;11.098;2023-12-20T14:39:02;19.40;55.40
38237;DHT22;50101;49.438;11.098;2023-12-20T14:41:30;19.30;55.00
38237;DHT22;50101;49.438;11.098;2023-12-20T14:43:58;19.40;54.70
38237;DHT22;50101;49.438;11.098;2023-12-20T14:46:26;19.40;54.90
38237;DHT22;50101;49.438;11.098;2023-12-20T14:48:53;19.30;54.80
38237;DHT22;50101;49.438;11.098;2023-12-20T14:51:20;19.30;54.70
38237;DHT22;50101;49.438;11.098;2023-12-20T14:53:46;19.30;54.80
38237;DHT22;50101;49.438;11.098;2023-12-20T14:56:13;19.30;54.80
38237;DHT22;50101;49.438;11.098;2023-12-20T14:58:41;19.20;54.70
38237;DHT22;50101;49.438;11.098;2023-12-20T15:01:08;19.20;54.80
38237;DHT22;50101;49.438;11.098;2023-12-20T15:03:35;19.20;54.90
38237;DHT22;50101;49.438;11.098;2023-12-20T15:06:02;19.20;54.90
38237;DHT22;50101;49.438;11.098;2023-12-20T15:08:29;19.20;55.00
38237;DHT22;50101;49.438;11.098;2023-12-20T15:10:57;19.10;54.90
38237;DHT22;50101;49.438;11.098;2023-12-20T15:13:24;19.10;54.90
38237;DHT22;50101;49.438;11.098;2023-12-20T15:15:50;19.10;54.90
38237;DHT22;50101;49.438;11.098;2023-12-20T15:18:17;19.10;54.90
38237;DHT22;50101;49.438;11.098;2023-12-20T15:20:50;19.10;54.50
38237;DHT22;50101;49.438;11.098;2023-12-20T15:23:17;19.10;55.00